createdAt,value
2023-02-13T00:00:04.652Z,24.72
2023-02-13T00:01:04.617Z,24.73
2023-02-13T00:02:04.689Z,24.73
2023-02-13T00:03:04.667Z,24.73
2023-02-13T00:04:04.626Z,24.73
2023-02-13T00:05:04.621Z,24.72
2023-02-13T00:06:04.603Z,24.72
2023-02-13T00:07:04.640Z,24.74
2023-02-13T00:08:04.607Z,24.74
2023-02-13T00:09:06.412Z,24.75
2023-02-13T00:10:04.601Z,24.76
2023-02-13T00:11:04.616Z,24.77
2023-02-13T00:20:04.491Z,24.94
2023-02-13T00:21:04.530Z,24.97
2023-02-13T00:22:04.508Z,25.00
2023-02-13T00:23:04.504Z,25.01
2023-02-13T00:24:04.478Z,25.03
2023-02-13T00:25:04.452Z,25.05
2023-02-13T00:26:04.479Z,25.08
2023-02-13T00:27:04.459Z,25.09
2023-02-13T00:28:04.499Z,25.12
2023-02-13T00:29:04.421Z,25.15
2023-02-13T00:30:04.445Z,25.17
2023-02-13T00:31:04.544Z,25.19
2023-02-13T00:32:04.508Z,25.21
2023-02-13T00:33:04.455Z,25.23
2023-02-13T00:34:04.431Z,25.24
2023-02-13T00:35:04.383Z,25.26
2023-02-13T00:36:04.430Z,25.27
2023-02-13T00:37:04.389Z,25.30
2023-02-13T00:38:04.388Z,25.31
2023-02-13T00:39:04.368Z,25.32
2023-02-13T00:40:04.377Z,25.33
2023-02-13T00:41:04.356Z,25.33
2023-02-13T00:42:04.366Z,25.34
2023-02-13T00:43:04.361Z,25.35
2023-02-13T00:44:04.372Z,25.37
2023-02-13T00:45:04.381Z,25.39
2023-02-13T00:46:04.382Z,25.40
2023-02-13T00:47:04.338Z,25.40
2023-02-13T00:48:04.343Z,25.41
2023-02-13T00:49:04.325Z,25.42
2023-02-13T00:50:04.321Z,25.44
2023-02-13T00:51:04.274Z,25.44
2023-02-13T00:52:04.277Z,25.44
2023-02-13T00:53:04.275Z,25.45
2023-02-13T00:54:04.270Z,25.46
2023-02-13T00:55:04.266Z,25.48
2023-02-13T00:56:04.239Z,25.49
2023-02-13T00:57:04.277Z,25.50
2023-02-13T00:58:04.318Z,25.50
2023-02-13T00:59:04.272Z,25.50
2023-02-13T01:00:04.269Z,25.50
2023-02-13T01:01:04.239Z,25.52
2023-02-13T01:02:04.215Z,25.52
2023-02-13T01:03:04.199Z,25.52
2023-02-13T01:04:04.282Z,25.53
2023-02-13T01:05:04.176Z,25.54
2023-02-13T01:06:04.473Z,25.55
2023-02-13T01:07:04.162Z,25.54
2023-02-13T01:08:04.200Z,25.55
2023-02-13T01:09:04.177Z,25.56
2023-02-13T01:10:04.173Z,25.56
2023-02-13T01:11:04.198Z,25.57
2023-02-13T01:12:04.138Z,25.57
2023-02-13T01:13:04.162Z,25.57
2023-02-13T01:14:04.128Z,25.58
2023-02-13T01:15:04.145Z,25.59
2023-02-13T01:16:04.144Z,25.60
2023-02-13T01:17:04.131Z,25.61
2023-02-13T01:18:04.146Z,25.61
2023-02-13T01:19:04.095Z,25.61
2023-02-13T01:20:04.077Z,25.62
2023-02-13T01:21:04.109Z,25.61
2023-02-13T01:22:04.109Z,25.62
2023-02-13T02:07:06.110Z,25.85
2023-02-13T02:08:06.160Z,25.86
2023-02-13T02:09:06.228Z,25.85
2023-02-13T02:10:06.290Z,25.85
2023-02-13T02:11:06.336Z,25.86
2023-02-13T02:12:06.403Z,25.85
2023-02-13T02:13:06.443Z,25.86
2023-02-13T02:14:06.521Z,25.85
2023-02-13T02:15:06.589Z,25.87
2023-02-13T02:16:06.695Z,25.86
2023-02-13T02:17:06.666Z,25.87
2023-02-13T02:18:06.733Z,25.87
2023-02-13T02:19:06.773Z,25.88
2023-02-13T02:20:06.872Z,25.89
2023-02-13T02:21:06.929Z,25.90
2023-02-13T02:22:06.979Z,25.90
2023-02-13T02:23:07.029Z,25.90
2023-02-13T02:24:07.068Z,25.90
2023-02-13T02:25:07.119Z,25.90
2023-02-13T02:26:07.193Z,25.90
2023-02-13T02:27:07.217Z,25.91
2023-02-13T02:28:07.351Z,25.91
2023-02-13T02:29:07.331Z,25.92
2023-02-13T02:30:07.392Z,25.91
2023-02-13T02:31:07.642Z,25.90
2023-02-13T02:32:07.503Z,25.90
2023-02-13T02:33:07.583Z,25.91
2023-02-13T02:34:07.634Z,25.91
2023-02-13T02:42:07.994Z,25.95
2023-02-13T02:43:08.053Z,25.96
2023-02-13T02:44:08.110Z,25.97
2023-02-13T02:45:08.127Z,25.98
2023-02-13T02:46:08.212Z,25.98
2023-02-13T02:47:08.316Z,25.98
2023-02-13T02:48:08.291Z,25.97
2023-02-13T02:49:08.307Z,25.97
2023-02-13T02:50:08.365Z,25.97
2023-02-13T02:51:08.408Z,25.97
2023-02-13T02:52:08.479Z,25.98
2023-02-13T02:53:08.524Z,25.98
2023-02-13T02:54:08.543Z,25.99
2023-02-13T02:55:08.644Z,25.98
2023-02-13T02:56:08.643Z,25.98
2023-02-13T02:57:08.660Z,25.98
2023-02-13T02:58:08.680Z,25.98
2023-02-13T02:59:08.708Z,25.97
2023-02-13T03:00:08.749Z,25.96
2023-02-13T03:01:08.910Z,25.96
2023-02-13T03:02:08.822Z,25.97
2023-02-13T03:03:08.896Z,25.98
2023-02-13T03:04:08.921Z,25.97
2023-02-13T03:05:08.966Z,25.98
2023-02-13T03:06:09.000Z,25.98
2023-02-13T03:07:09.039Z,25.98
2023-02-13T03:08:09.083Z,25.99
2023-02-13T03:09:09.109Z,25.99
2023-02-13T03:10:09.142Z,25.99
2023-02-13T03:11:09.201Z,26.00
2023-02-13T03:12:09.234Z,26.01
2023-02-13T03:13:09.263Z,26.00
2023-02-13T03:14:09.330Z,26.01
2023-02-13T03:15:09.333Z,26.02
2023-02-13T03:16:09.442Z,26.02
2023-02-13T03:17:09.436Z,26.02
2023-02-13T03:18:09.482Z,26.02
2023-02-13T03:19:09.536Z,26.04
2023-02-13T03:20:09.566Z,26.03
2023-02-13T03:21:09.603Z,26.04
2023-02-13T03:22:09.631Z,26.05
2023-02-13T03:23:09.683Z,26.06
2023-02-13T03:24:09.760Z,26.04
2023-02-13T03:25:09.760Z,26.04
2023-02-13T03:26:09.808Z,26.05
2023-02-13T03:27:09.876Z,26.05
2023-02-13T03:28:09.942Z,26.05
2023-02-13T03:29:09.933Z,26.06
2023-02-13T03:30:09.945Z,26.05
2023-02-13T03:31:10.100Z,26.06
2023-02-13T03:32:10.050Z,26.06
2023-02-13T03:33:10.106Z,26.08
2023-02-13T03:34:10.103Z,26.08
2023-02-13T03:35:10.144Z,26.07
2023-02-13T03:36:10.187Z,26.07
2023-02-13T03:37:10.227Z,26.07
2023-02-13T03:38:10.254Z,26.08
2023-02-13T03:39:10.338Z,26.07
2023-02-13T03:40:10.371Z,26.08
2023-02-13T03:41:10.389Z,26.08
2023-02-13T03:42:10.452Z,26.09
2023-02-13T03:43:10.476Z,26.09
2023-02-13T03:44:10.516Z,26.11
2023-02-13T03:45:10.552Z,26.11
2023-02-13T03:46:10.636Z,26.10
2023-02-13T03:47:10.607Z,26.10
2023-02-13T03:48:10.668Z,26.11
2023-02-13T03:49:10.700Z,26.10
2023-02-13T03:50:10.727Z,26.09
2023-02-13T03:51:10.759Z,26.11
2023-02-13T03:52:10.805Z,26.10
2023-02-13T03:53:10.813Z,26.10
2023-02-13T03:54:10.849Z,26.11
2023-02-13T03:55:10.888Z,26.10
2023-02-13T03:57:10.957Z,26.12
2023-02-13T03:58:10.984Z,26.12
2023-02-13T03:59:11.033Z,26.13
2023-02-13T04:00:11.063Z,26.13
2023-02-13T04:01:11.104Z,26.15
2023-02-13T04:02:11.169Z,26.14
2023-02-13T04:03:11.165Z,26.15
2023-02-13T04:04:11.194Z,26.15
2023-02-13T04:05:12.086Z,26.16
2023-02-13T04:06:11.248Z,26.15
2023-02-13T04:07:11.291Z,26.14
2023-02-13T04:08:11.309Z,26.15
2023-02-13T04:09:11.370Z,26.16
2023-02-13T04:10:11.417Z,26.15
2023-02-13T04:11:11.425Z,26.15
2023-02-13T04:12:11.452Z,26.14
2023-02-13T04:13:11.487Z,26.14
2023-02-13T04:14:11.507Z,26.15
2023-02-13T04:15:11.557Z,26.16
2023-02-13T04:16:11.615Z,26.14
2023-02-13T04:17:11.628Z,26.14
2023-02-13T04:18:11.630Z,26.15
2023-02-13T04:19:11.676Z,26.14
2023-02-13T05:59:16.067Z,26.19
2023-02-13T06:00:16.179Z,26.19
2023-02-13T06:01:23.201Z,26.19
2023-02-13T06:02:16.221Z,26.17
2023-02-13T06:03:16.170Z,26.18
2023-02-13T06:04:16.265Z,26.18
2023-02-13T06:05:16.137Z,26.18
2023-02-13T06:06:16.120Z,26.18
2023-02-13T06:07:16.160Z,26.18
2023-02-13T06:08:16.146Z,26.18
2023-02-13T06:09:16.112Z,26.18
2023-02-13T06:10:16.089Z,26.16
2023-02-13T06:11:16.130Z,26.15
2023-02-13T06:12:16.125Z,26.16
2023-02-13T06:13:16.076Z,26.16
2023-02-13T06:14:16.108Z,26.17
2023-02-13T06:15:16.095Z,26.16
2023-02-13T06:16:16.088Z,26.17
2023-02-13T06:17:16.118Z,26.15
2023-02-13T06:19:16.092Z,26.16
2023-02-13T06:22:16.086Z,26.17
2023-02-13T06:27:16.108Z,26.18
2023-02-13T06:28:16.163Z,26.17
2023-02-13T06:29:16.219Z,26.17
2023-02-13T06:30:16.274Z,26.17
2023-02-13T06:31:16.447Z,26.17
2023-02-13T06:32:16.427Z,26.17
2023-02-13T06:33:16.474Z,26.17
2023-02-13T06:34:16.518Z,26.16
2023-02-13T06:35:16.573Z,26.16
2023-02-13T06:36:16.658Z,26.17
2023-02-13T06:37:16.728Z,26.17
2023-02-13T06:38:16.756Z,26.17
2023-02-13T06:39:16.829Z,26.17
2023-02-13T06:40:16.874Z,26.17
2023-02-13T06:41:16.954Z,26.17
2023-02-13T06:42:17.058Z,26.16
2023-02-13T06:43:17.070Z,26.16
2023-02-13T06:44:17.155Z,26.15
2023-02-13T06:45:17.179Z,26.14
2023-02-13T06:46:24.280Z,26.16
2023-02-13T06:47:17.275Z,26.16
2023-02-13T06:48:17.212Z,26.15
2023-02-13T06:49:17.205Z,26.16
2023-02-13T06:50:17.212Z,26.15
2023-02-13T06:51:17.216Z,26.16
2023-02-13T06:52:17.184Z,26.16
2023-02-13T06:53:17.202Z,26.17
2023-02-13T06:54:17.168Z,26.17
2023-02-13T06:55:17.220Z,26.16
2023-02-13T06:56:17.233Z,26.16
2023-02-13T06:57:17.143Z,26.16
2023-02-13T06:58:17.155Z,26.17
2023-02-13T06:59:17.186Z,26.16
2023-02-13T07:00:17.276Z,26.16
2023-02-13T07:01:17.205Z,26.16
2023-02-13T07:02:17.127Z,26.16
2023-02-13T07:03:17.165Z,26.16
2023-02-13T07:04:17.112Z,26.16
2023-02-13T07:05:17.214Z,26.17
2023-02-13T07:06:17.131Z,26.17
2023-02-13T07:07:17.082Z,26.17
2023-02-13T07:08:17.097Z,26.16
2023-02-13T07:09:17.065Z,26.16
2023-02-13T07:10:17.114Z,26.16
2023-02-13T07:11:17.117Z,26.15
2023-02-13T07:12:17.126Z,26.16
2023-02-13T07:13:17.062Z,26.16
2023-02-13T07:14:17.059Z,26.16
2023-02-13T07:15:17.151Z,26.16
2023-02-13T07:16:17.218Z,26.17
2023-02-13T07:17:17.268Z,26.16
2023-02-13T07:18:17.327Z,26.16
2023-02-13T07:19:17.377Z,26.14
2023-02-13T07:20:17.412Z,26.14
2023-02-13T07:21:17.498Z,26.15
2023-02-13T07:22:17.543Z,26.16
2023-02-13T07:23:17.610Z,26.15
2023-02-13T07:24:17.638Z,26.16
2023-02-13T07:25:17.733Z,26.16
2023-02-13T07:26:17.773Z,26.17
2023-02-13T07:27:17.839Z,26.18
2023-02-13T07:28:17.937Z,26.18
2023-02-13T07:29:17.968Z,26.20
2023-02-13T07:30:18.304Z,26.20
2023-02-13T07:31:18.195Z,26.20
2023-02-13T07:32:18.187Z,26.20
2023-02-13T07:33:18.236Z,26.19
2023-02-13T07:34:18.287Z,26.21
2023-02-13T07:35:18.337Z,26.21
2023-02-13T07:36:18.410Z,26.23
2023-02-13T07:37:18.447Z,26.68
2023-02-13T07:38:18.455Z,28.18
2023-02-13T07:39:18.528Z,30.28
2023-02-13T07:40:18.548Z,32.35
2023-02-13T07:41:18.595Z,34.17
2023-02-13T07:42:18.601Z,35.76
2023-02-13T07:43:18.644Z,36.96
2023-02-13T07:44:18.688Z,37.70
2023-02-13T07:45:18.712Z,37.75
2023-02-13T07:46:18.756Z,37.63
2023-02-13T07:47:20.153Z,37.41
2023-02-13T07:48:18.704Z,37.49
2023-02-13T07:49:18.728Z,37.62
2023-02-13T07:50:18.853Z,36.80
2023-02-13T07:51:18.824Z,35.23
2023-02-13T07:52:18.837Z,33.93
2023-02-13T07:53:18.866Z,32.91
2023-02-13T07:54:18.886Z,32.15
2023-02-13T07:55:18.944Z,31.56
2023-02-13T07:56:18.955Z,31.08
2023-02-13T07:57:19.024Z,30.70
2023-02-13T07:58:19.017Z,30.40
2023-02-13T07:59:19.034Z,30.14
2023-02-13T08:00:19.095Z,29.92
2023-02-13T08:01:19.097Z,29.74
2023-02-13T08:02:19.157Z,29.59
2023-02-13T08:03:19.137Z,29.46
2023-02-13T08:04:19.220Z,29.35
2023-02-13T08:05:19.333Z,29.22
2023-02-13T08:06:19.346Z,29.12
2023-02-13T08:07:19.354Z,29.04
2023-02-13T10:32:26.372Z,27.77
2023-02-13T10:36:26.136Z,27.76
2023-02-13T10:37:26.237Z,27.75
2023-02-13T10:38:26.207Z,27.74
2023-02-13T10:39:26.254Z,27.74
2023-02-13T10:40:26.322Z,27.71
2023-02-13T10:41:26.412Z,27.70
2023-02-13T10:42:26.447Z,27.70
2023-02-13T10:43:26.489Z,27.69
2023-02-13T10:44:26.558Z,27.69
2023-02-13T10:45:26.608Z,27.67
2023-02-13T10:46:26.689Z,27.67
2023-02-13T10:47:26.674Z,27.67
2023-02-13T10:48:27.134Z,27.66
2023-02-13T10:49:26.810Z,27.65
2023-02-13T10:50:26.846Z,27.65
2023-02-13T10:51:26.882Z,27.64
2023-02-13T10:52:26.967Z,27.63
2023-02-13T10:53:26.966Z,27.63
2023-02-13T10:54:27.028Z,27.62
2023-02-13T10:55:27.073Z,27.61
2023-02-13T10:56:27.158Z,27.59
2023-02-13T10:57:27.174Z,27.58
2023-02-13T10:58:27.203Z,27.59
2023-02-13T10:59:27.269Z,27.57
2023-02-13T11:00:27.288Z,27.57
2023-02-13T11:01:27.397Z,27.56
2023-02-13T11:02:27.400Z,27.56
2023-02-13T11:03:27.434Z,27.56
2023-02-13T11:04:27.496Z,27.55
2023-02-13T11:05:27.484Z,27.54
2023-02-13T11:06:27.463Z,27.54
2023-02-13T11:07:27.461Z,27.54
2023-02-13T11:08:27.496Z,27.54
2023-02-13T11:09:27.516Z,27.54
2023-02-13T11:10:27.518Z,27.54
2023-02-13T11:11:27.911Z,27.54
2023-02-13T11:12:27.529Z,27.53
2023-02-13T11:13:27.570Z,27.53
2023-02-13T11:14:27.576Z,27.53
2023-02-13T11:15:27.584Z,27.53
2023-02-13T11:16:27.701Z,27.54
2023-02-13T11:17:27.669Z,27.55
2023-02-13T11:18:27.634Z,27.55
2023-02-13T11:19:27.664Z,27.54
2023-02-13T11:20:27.652Z,27.55
2023-02-13T11:21:27.671Z,27.55
2023-02-13T11:22:27.673Z,27.56
2023-02-13T11:23:27.702Z,27.57
2023-02-13T11:24:27.709Z,27.58
2023-02-13T11:25:27.789Z,27.59
2023-02-13T11:26:27.790Z,27.59
2023-02-13T11:27:27.875Z,27.60
2023-02-13T11:28:27.968Z,27.59
2023-02-13T11:29:27.982Z,27.59
2023-02-13T11:30:28.047Z,27.61
2023-02-13T11:31:28.213Z,27.61
2023-02-13T11:32:28.216Z,27.62
2023-02-13T11:33:28.159Z,27.62
2023-02-13T11:34:28.256Z,27.63
2023-02-13T11:35:28.280Z,27.64
2023-02-13T11:36:28.303Z,27.65
2023-02-13T11:37:28.405Z,27.65
2023-02-13T14:05:36.075Z,27.52
2023-02-13T14:06:36.064Z,27.52
2023-02-13T14:07:36.062Z,27.51
2023-02-13T14:08:36.058Z,27.50
2023-02-13T14:09:36.171Z,27.50
2023-02-13T14:10:36.259Z,27.50
2023-02-13T14:11:36.329Z,27.49
2023-02-13T14:12:36.368Z,27.49
2023-02-13T14:13:36.407Z,27.49
2023-02-13T14:14:36.460Z,27.49
2023-02-13T17:36:43.232Z,26.14
2023-02-13T17:38:43.249Z,26.12
2023-02-13T17:39:43.213Z,26.11
2023-02-13T17:40:43.265Z,26.11
2023-02-13T17:41:43.216Z,26.10
2023-02-13T17:42:43.300Z,26.09
2023-02-13T17:43:43.370Z,26.09
2023-02-13T17:44:43.451Z,26.09
2023-02-13T17:45:43.446Z,26.08
2023-02-13T17:46:43.459Z,26.07
2023-02-13T17:47:43.441Z,26.06
2023-02-13T17:48:43.451Z,26.05
2023-02-13T17:49:43.416Z,26.05
2023-02-13T17:50:43.442Z,26.04
2023-02-13T17:51:45.865Z,26.03
2023-02-13T17:52:43.582Z,26.03
2023-02-13T17:53:43.582Z,26.02
2023-02-13T17:54:43.592Z,26.02
2023-02-13T17:55:43.577Z,26.01
2023-02-13T21:08:46.089Z,25.59
2023-02-13T21:09:46.099Z,25.59
2023-02-13T21:10:46.112Z,25.59
2023-02-13T21:11:46.122Z,25.59
2023-02-13T21:12:46.146Z,25.58
2023-02-13T21:13:46.206Z,25.58
2023-02-13T21:14:46.242Z,25.58
2023-02-13T21:15:46.233Z,25.59
2023-02-13T21:16:46.303Z,25.58
2023-02-13T21:17:46.292Z,25.58
2023-02-13T21:18:46.335Z,25.57
2023-02-13T21:19:46.294Z,25.57
2023-02-13T21:20:46.351Z,25.57
2023-02-13T21:21:46.347Z,25.57
2023-02-13T21:22:46.407Z,25.57
2023-02-13T21:23:46.408Z,25.56
2023-02-13T21:24:46.400Z,25.56
2023-02-13T21:25:46.440Z,25.55
2023-02-13T21:26:46.448Z,25.56
2023-02-13T21:27:46.493Z,25.56
2023-02-13T21:28:46.545Z,25.55
2023-02-13T21:29:46.690Z,25.55
2023-02-13T21:30:46.553Z,25.55
2023-02-13T21:31:46.658Z,25.55
2023-02-13T21:32:46.587Z,25.55
2023-02-13T21:33:46.664Z,25.55
2023-02-13T21:34:46.654Z,25.55
2023-02-13T21:35:46.706Z,25.54
2023-02-13T21:36:46.765Z,25.54
2023-02-13T21:37:46.733Z,25.53
2023-02-13T21:38:46.777Z,25.54
2023-02-13T21:39:46.781Z,25.53
2023-02-13T21:40:46.801Z,25.53
2023-02-13T21:41:46.858Z,25.53
2023-02-13T21:42:46.846Z,25.54
2023-02-13T21:43:46.915Z,25.53
2023-02-13T21:44:46.928Z,25.53
2023-02-13T21:45:46.953Z,25.53
2023-02-13T21:46:47.073Z,25.53
2023-02-13T21:47:46.973Z,25.53
2023-02-13T21:48:47.047Z,25.52
2023-02-13T21:49:47.033Z,25.52
2023-02-13T21:50:47.062Z,25.52
2023-02-13T21:51:47.132Z,25.53
2023-02-13T21:52:47.131Z,25.52
2023-02-13T21:53:47.214Z,25.52
2023-02-13T21:54:47.192Z,25.52
2023-02-13T21:55:47.203Z,25.52
2023-02-13T21:57:47.265Z,25.53
2023-02-13T21:58:47.297Z,25.53
2023-02-13T21:59:47.304Z,25.52
2023-02-13T22:00:47.338Z,25.52
2023-02-13T22:01:47.432Z,25.51
2023-02-13T22:02:47.444Z,25.51
2023-02-13T22:03:47.405Z,25.51
2023-02-13T22:04:47.434Z,25.50
2023-02-13T22:05:47.468Z,25.50
2023-02-13T22:06:47.486Z,25.49
2023-02-13T22:07:47.522Z,25.49
2023-02-13T22:08:47.971Z,25.49
2023-02-13T22:09:47.617Z,25.49
2023-02-13T22:10:47.638Z,25.50
2023-02-13T22:11:47.655Z,25.49
2023-02-13T22:12:47.703Z,25.49
2023-02-13T22:13:47.690Z,25.50
2023-02-13T22:14:47.743Z,25.50
2023-02-13T22:15:47.746Z,25.50
2023-02-13T22:16:47.933Z,25.49
2023-02-13T22:17:47.792Z,25.50
2023-02-13T22:18:47.858Z,25.50
2023-02-13T22:19:47.879Z,25.50
2023-02-13T22:20:47.884Z,25.51
2023-02-13T22:21:47.965Z,25.50
2023-02-13T22:22:47.999Z,25.50
2023-02-13T22:23:47.986Z,25.50
2023-02-13T22:24:48.016Z,25.50
2023-02-13T22:25:49.028Z,25.49
2023-02-13T22:26:48.109Z,25.49
2023-02-13T22:27:48.149Z,25.49
2023-02-13T22:28:48.214Z,25.49
2023-02-13T22:29:48.239Z,25.49
2023-02-13T22:30:48.329Z,25.49
2023-02-13T22:31:48.423Z,25.49
2023-02-13T22:32:48.303Z,25.49
2023-02-13T22:33:58.508Z,25.49
2023-02-13T22:34:49.324Z,25.49
2023-02-13T22:35:48.301Z,25.49
2023-02-13T22:36:48.316Z,25.49
2023-02-13T22:37:48.277Z,25.49
2023-02-13T22:38:48.273Z,25.49
2023-02-13T22:39:48.259Z,25.48
2023-02-13T22:40:48.273Z,25.48
2023-02-13T22:41:48.230Z,25.48
2023-02-13T22:42:48.268Z,25.48
2023-02-13T22:43:48.253Z,25.48
2023-02-13T22:44:48.220Z,25.48
2023-02-13T22:45:48.325Z,25.49
2023-02-13T22:46:48.230Z,25.48
2023-02-13T22:47:48.248Z,25.48
2023-02-13T22:48:48.241Z,25.47
2023-02-13T22:49:48.277Z,25.48
2023-02-13T22:50:48.298Z,25.48
2023-02-13T22:51:48.347Z,25.47
